sensor_id;sensor_type;location;lat;lon;timestamp;P1;durP1;ratioP1;P2;durP2;ratioP2
77191;SDS011;66172;48.526;8.078;2023-12-29T00:01:34;5.80;;;2.50;;
77191;SDS011;66172;48.526;8.078;2023-12-29T00:04:00;6.20;;;2.30;;
77191;SDS011;66172;48.526;8.078;2023-12-29T00:06:26;6.50;;;2.38;;
77191;SDS011;66172;48.526;8.078;2023-12-29T00:08:52;6.57;;;2.60;;
77191;SDS011;66172;48.526;8.078;2023-12-29T00:11:21;5.53;;;2.15;;
77191;SDS011;66172;48.526;8.078;2023-12-29T00:13:48;6.90;;;2.40;;
77191;SDS011;66172;48.526;8.078;2023-12-29T00:16:14;7.38;;;2.90;;
77191;SDS011;66172;48.526;8.078;2023-12-29T00:18:41;6.03;;;2.47;;
77191;SDS011;66172;48.526;8.078;2023-12-29T00:21:07;7.25;;;2.20;;
77191;SDS011;66172;48.526;8.078;2023-12-29T00:23:33;5.75;;;1.65;;
77191;SDS011;66172;48.526;8.078;2023-12-29T00:25:59;5.47;;;2.10;;
77191;SDS011;66172;48.526;8.078;2023-12-29T00:28:24;6.45;;;2.45;;
77191;SDS011;66172;48.526;8.078;2023-12-29T00:30:50;5.53;;;2.10;;
77191;SDS011;66172;48.526;8.078;2023-12-29T00:33:16;7.03;;;2.27;;
77191;SDS011;66172;48.526;8.078;2023-12-29T00:35:42;5.55;;;2.20;;
77191;SDS011;66172;48.526;8.078;2023-12-29T00:38:08;5.93;;;2.15;;
77191;SDS011;66172;48.526;8.078;2023-12-29T00:40:34;7.40;;;2.17;;
77191;SDS011;66172;48.526;8.078;2023-12-29T00:43:00;6.37;;;2.33;;
77191;SDS011;66172;48.526;8.078;2023-12-29T00:45:27;5.93;;;2.40;;
77191;SDS011;66172;48.526;8.078;2023-12-29T00:47:58;15.43;;;6.15;;
77191;SDS011;66172;48.526;8.078;2023-12-29T00:50:25;10.63;;;4.88;;
77191;SDS011;66172;48.526;8.078;2023-12-29T00:52:52;6.43;;;2.40;;
77191;SDS011;66172;48.526;8.078;2023-12-29T00:55:18;7.13;;;2.47;;
77191;SDS011;66172;48.526;8.078;2023-12-29T00:57:44;7.50;;;2.58;;
77191;SDS011;66172;48.526;8.078;2023-12-29T01:00:10;5.72;;;2.35;;
77191;SDS011;66172;48.526;8.078;2023-12-29T01:02:37;5.50;;;2.20;;
77191;SDS011;66172;48.526;8.078;2023-12-29T01:05:04;6.57;;;2.70;;
77191;SDS011;66172;48.526;8.078;2023-12-29T01:07:30;8.30;;;2.42;;
77191;SDS011;66172;48.526;8.078;2023-12-29T01:09:56;8.15;;;2.28;;
77191;SDS011;66172;48.526;8.078;2023-12-29T01:12:22;5.87;;;2.40;;
77191;SDS011;66172;48.526;8.078;2023-12-29T01:14:47;5.83;;;2.47;;
77191;SDS011;66172;48.526;8.078;2023-12-29T01:17:13;7.72;;;3.22;;
77191;SDS011;66172;48.526;8.078;2023-12-29T01:19:39;5.95;;;2.50;;
77191;SDS011;66172;48.526;8.078;2023-12-29T01:22:05;6.77;;;2.50;;
77191;SDS011;66172;48.526;8.078;2023-12-29T01:24:31;7.40;;;2.40;;
77191;SDS011;66172;48.526;8.078;2023-12-29T01:26:57;5.60;;;2.45;;
77191;SDS011;66172;48.526;8.078;2023-12-29T01:29:23;6.10;;;2.30;;
77191;SDS011;66172;48.526;8.078;2023-12-29T01:31:49;7.20;;;2.47;;
77191;SDS011;66172;48.526;8.078;2023-12-29T01:34:14;4.90;;;1.98;;
77191;SDS011;66172;48.526;8.078;2023-12-29T01:36:40;6.75;;;2.53;;
77191;SDS011;66172;48.526;8.078;2023-12-29T01:39:06;6.83;;;2.40;;
77191;SDS011;66172;48.526;8.078;2023-12-29T01:41:32;6.57;;;2.25;;
77191;SDS011;66172;48.526;8.078;2023-12-29T01:46:28;5.60;;;1.90;;
77191;SDS011;66172;48.526;8.078;2023-12-29T01:48:56;5.50;;;1.83;;
77191;SDS011;66172;48.526;8.078;2023-12-29T01:51:25;5.70;;;1.90;;
77191;SDS011;66172;48.526;8.078;2023-12-29T01:53:52;5.47;;;2.10;;
77191;SDS011;66172;48.526;8.078;2023-12-29T01:56:20;5.30;;;2.05;;
77191;SDS011;66172;48.526;8.078;2023-12-29T01:58:48;5.72;;;2.15;;
77191;SDS011;66172;48.526;8.078;2023-12-29T02:01:15;5.40;;;2.10;;
77191;SDS011;66172;48.526;8.078;2023-12-29T02:03:42;6.15;;;2.30;;
77191;SDS011;66172;48.526;8.078;2023-12-29T02:06:09;6.65;;;2.47;;
77191;SDS011;66172;48.526;8.078;2023-12-29T02:08:40;6.38;;;2.40;;
77191;SDS011;66172;48.526;8.078;2023-12-29T02:11:06;5.13;;;1.98;;
77191;SDS011;66172;48.526;8.078;2023-12-29T02:13:32;5.53;;;2.13;;
77191;SDS011;66172;48.526;8.078;2023-12-29T02:16:00;4.63;;;1.90;;
77191;SDS011;66172;48.526;8.078;2023-12-29T02:18:33;5.25;;;1.88;;
77191;SDS011;66172;48.526;8.078;2023-12-29T02:21:02;5.97;;;2.03;;
77191;SDS011;66172;48.526;8.078;2023-12-29T02:23:29;5.33;;;2.00;;
77191;SDS011;66172;48.526;8.078;2023-12-29T02:25:58;5.32;;;2.00;;
77191;SDS011;66172;48.526;8.078;2023-12-29T02:28:28;5.72;;;1.90;;
77191;SDS011;66172;48.526;8.078;2023-12-29T02:31:00;5.68;;;2.10;;
77191;SDS011;66172;48.526;8.078;2023-12-29T02:33:35;5.80;;;1.90;;
77191;SDS011;66172;48.526;8.078;2023-12-29T02:36:04;5.90;;;1.90;;
77191;SDS011;66172;48.526;8.078;2023-12-29T02:38:31;6.20;;;1.85;;
77191;SDS011;66172;48.526;8.078;2023-12-29T02:40:58;5.47;;;2.25;;
77191;SDS011;66172;48.526;8.078;2023-12-29T02:43:24;5.00;;;1.77;;
77191;SDS011;66172;48.526;8.078;2023-12-29T02:45:50;5.50;;;1.70;;
77191;SDS011;66172;48.526;8.078;2023-12-29T02:48:16;6.03;;;2.30;;
77191;SDS011;66172;48.526;8.078;2023-12-29T02:50:42;5.88;;;2.20;;
77191;SDS011;66172;48.526;8.078;2023-12-29T02:53:08;5.20;;;2.10;;
77191;SDS011;66172;48.526;8.078;2023-12-29T02:55:34;5.32;;;1.85;;
77191;SDS011;66172;48.526;8.078;2023-12-29T02:58:00;13.60;;;2.10;;
77191;SDS011;66172;48.526;8.078;2023-12-29T03:00:26;5.25;;;1.85;;
77191;SDS011;66172;48.526;8.078;2023-12-29T03:02:52;5.30;;;1.90;;
77191;SDS011;66172;48.526;8.078;2023-12-29T03:05:17;5.60;;;1.70;;
77191;SDS011;66172;48.526;8.078;2023-12-29T03:07:43;5.25;;;1.83;;
77191;SDS011;66172;48.526;8.078;2023-12-29T03:10:09;5.43;;;1.88;;
77191;SDS011;66172;48.526;8.078;2023-12-29T03:12:35;4.50;;;1.80;;
77191;SDS011;66172;48.526;8.078;2023-12-29T03:15:02;4.90;;;2.03;;
77191;SDS011;66172;48.526;8.078;2023-12-29T03:17:28;6.78;;;2.10;;
77191;SDS011;66172;48.526;8.078;2023-12-29T03:19:54;5.30;;;1.90;;
77191;SDS011;66172;48.526;8.078;2023-12-29T03:22:20;5.37;;;1.90;;
77191;SDS011;66172;48.526;8.078;2023-12-29T03:24:46;6.20;;;2.22;;
77191;SDS011;66172;48.526;8.078;2023-12-29T03:27:12;6.13;;;2.05;;
77191;SDS011;66172;48.526;8.078;2023-12-29T03:29:38;7.03;;;2.15;;
77191;SDS011;66172;48.526;8.078;2023-12-29T03:32:04;5.17;;;1.80;;
77191;SDS011;66172;48.526;8.078;2023-12-29T03:34:30;4.32;;;1.60;;
77191;SDS011;66172;48.526;8.078;2023-12-29T03:36:56;5.38;;;1.65;;
77191;SDS011;66172;48.526;8.078;2023-12-29T03:39:21;6.53;;;2.00;;
77191;SDS011;66172;48.526;8.078;2023-12-29T03:41:49;4.87;;;1.80;;
77191;SDS011;66172;48.526;8.078;2023-12-29T03:44:14;4.93;;;1.70;;
77191;SDS011;66172;48.526;8.078;2023-12-29T03:46:40;4.43;;;1.40;;
77191;SDS011;66172;48.526;8.078;2023-12-29T03:49:06;5.25;;;1.60;;
77191;SDS011;66172;48.526;8.078;2023-12-29T03:51:32;4.93;;;1.90;;
77191;SDS011;66172;48.526;8.078;2023-12-29T03:53:58;5.93;;;1.80;;
77191;SDS011;66172;48.526;8.078;2023-12-29T03:56:24;5.40;;;1.55;;
77191;SDS011;66172;48.526;8.078;2023-12-29T03:58:50;4.63;;;1.83;;
77191;SDS011;66172;48.526;8.078;2023-12-29T04:01:16;6.10;;;1.77;;
77191;SDS011;66172;48.526;8.078;2023-12-29T04:03:43;4.33;;;1.67;;
77191;SDS011;66172;48.526;8.078;2023-12-29T04:06:09;5.72;;;1.60;;
77191;SDS011;66172;48.526;8.078;2023-12-29T04:08:35;5.20;;;1.90;;
77191;SDS011;66172;48.526;8.078;2023-12-29T04:11:02;4.47;;;1.50;;
77191;SDS011;66172;48.526;8.078;2023-12-29T04:13:28;5.38;;;1.65;;
77191;SDS011;66172;48.526;8.078;2023-12-29T04:15:55;6.53;;;2.20;;
77191;SDS011;66172;48.526;8.078;2023-12-29T04:18:21;4.32;;;1.67;;
77191;SDS011;66172;48.526;8.078;2023-12-29T04:20:48;6.95;;;1.67;;
77191;SDS011;66172;48.526;8.078;2023-12-29T04:23:15;4.93;;;1.80;;
77191;SDS011;66172;48.526;8.078;2023-12-29T04:25:41;3.92;;;1.23;;
77191;SDS011;66172;48.526;8.078;2023-12-29T04:28:07;4.95;;;1.80;;
77191;SDS011;66172;48.526;8.078;2023-12-29T04:30:33;5.13;;;1.73;;
77191;SDS011;66172;48.526;8.078;2023-12-29T04:33:00;5.72;;;1.80;;
77191;SDS011;66172;48.526;8.078;2023-12-29T04:35:26;4.67;;;1.87;;
77191;SDS011;66172;48.526;8.078;2023-12-29T04:37:52;5.32;;;1.88;;
77191;SDS011;66172;48.526;8.078;2023-12-29T04:40:18;4.75;;;1.52;;
77191;SDS011;66172;48.526;8.078;2023-12-29T04:42:44;5.07;;;1.85;;
77191;SDS011;66172;48.526;8.078;2023-12-29T04:45:10;5.73;;;2.37;;
77191;SDS011;66172;48.526;8.078;2023-12-29T04:47:36;6.43;;;2.13;;
77191;SDS011;66172;48.526;8.078;2023-12-29T04:50:03;5.90;;;2.00;;
77191;SDS011;66172;48.526;8.078;2023-12-29T04:52:29;4.85;;;1.70;;
77191;SDS011;66172;48.526;8.078;2023-12-29T04:54:55;5.73;;;1.90;;
77191;SDS011;66172;48.526;8.078;2023-12-29T04:57:21;5.45;;;1.50;;
77191;SDS011;66172;48.526;8.078;2023-12-29T04:59:47;5.35;;;1.77;;
77191;SDS011;66172;48.526;8.078;2023-12-29T05:02:13;4.97;;;1.67;;
77191;SDS011;66172;48.526;8.078;2023-12-29T05:04:39;5.00;;;1.50;;
77191;SDS011;66172;48.526;8.078;2023-12-29T05:07:05;4.80;;;1.70;;
77191;SDS011;66172;48.526;8.078;2023-12-29T05:09:31;4.53;;;1.55;;
77191;SDS011;66172;48.526;8.078;2023-12-29T05:11:57;4.33;;;1.60;;
77191;SDS011;66172;48.526;8.078;2023-12-29T05:14:23;4.70;;;1.40;;
77191;SDS011;66172;48.526;8.078;2023-12-29T05:16:49;5.47;;;1.60;;
77191;SDS011;66172;48.526;8.078;2023-12-29T05:19:15;4.93;;;1.70;;
77191;SDS011;66172;48.526;8.078;2023-12-29T05:21:41;4.77;;;1.33;;
77191;SDS011;66172;48.526;8.078;2023-12-29T05:24:07;5.63;;;1.60;;
77191;SDS011;66172;48.526;8.078;2023-12-29T05:26:33;4.60;;;1.77;;
77191;SDS011;66172;48.526;8.078;2023-12-29T05:28:59;5.13;;;1.75;;
77191;SDS011;66172;48.526;8.078;2023-12-29T05:31:25;4.47;;;1.40;;
77191;SDS011;66172;48.526;8.078;2023-12-29T05:33:51;5.25;;;1.70;;
77191;SDS011;66172;48.526;8.078;2023-12-29T05:36:17;5.22;;;1.25;;
77191;SDS011;66172;48.526;8.078;2023-12-29T05:38:44;5.03;;;1.50;;
77191;SDS011;66172;48.526;8.078;2023-12-29T05:41:12;5.88;;;1.38;;
77191;SDS011;66172;48.526;8.078;2023-12-29T05:43:39;4.32;;;1.42;;
77191;SDS011;66172;48.526;8.078;2023-12-29T05:46:11;4.38;;;1.50;;
77191;SDS011;66172;48.526;8.078;2023-12-29T05:48:37;5.78;;;1.42;;
77191;SDS011;66172;48.526;8.078;2023-12-29T05:51:10;5.10;;;1.73;;
77191;SDS011;66172;48.526;8.078;2023-12-29T05:53:39;5.10;;;1.70;;
77191;SDS011;66172;48.526;8.078;2023-12-29T05:56:05;5.90;;;1.77;;
77191;SDS011;66172;48.526;8.078;2023-12-29T05:58:31;4.18;;;1.30;;
77191;SDS011;66172;48.526;8.078;2023-12-29T06:00:57;4.68;;;1.60;;
77191;SDS011;66172;48.526;8.078;2023-12-29T06:03:27;4.60;;;1.80;;
77191;SDS011;66172;48.526;8.078;2023-12-29T06:05:53;4.75;;;1.52;;
77191;SDS011;66172;48.526;8.078;2023-12-29T06:08:19;6.43;;;1.50;;
77191;SDS011;66172;48.526;8.078;2023-12-29T06:10:45;4.22;;;1.58;;
77191;SDS011;66172;48.526;8.078;2023-12-29T06:13:11;4.47;;;1.30;;
77191;SDS011;66172;48.526;8.078;2023-12-29T06:15:37;6.55;;;1.73;;
77191;SDS011;66172;48.526;8.078;2023-12-29T06:18:04;4.53;;;1.48;;
77191;SDS011;66172;48.526;8.078;2023-12-29T06:20:30;4.68;;;1.52;;
77191;SDS011;66172;48.526;8.078;2023-12-29T06:22:56;3.63;;;0.97;;
77191;SDS011;66172;48.526;8.078;2023-12-29T06:25:22;5.15;;;1.60;;
77191;SDS011;66172;48.526;8.078;2023-12-29T06:27:47;4.60;;;1.60;;
77191;SDS011;66172;48.526;8.078;2023-12-29T06:30:13;5.30;;;1.60;;
77191;SDS011;66172;48.526;8.078;2023-12-29T06:32:40;5.13;;;1.67;;
77191;SDS011;66172;48.526;8.078;2023-12-29T06:35:06;7.15;;;2.30;;
77191;SDS011;66172;48.526;8.078;2023-12-29T06:37:38;5.75;;;1.80;;
77191;SDS011;66172;48.526;8.078;2023-12-29T06:40:07;4.78;;;1.48;;
77191;SDS011;66172;48.526;8.078;2023-12-29T06:42:33;5.18;;;1.73;;
77191;SDS011;66172;48.526;8.078;2023-12-29T06:44:59;5.03;;;1.70;;
77191;SDS011;66172;48.526;8.078;2023-12-29T06:47:25;5.80;;;1.48;;
77191;SDS011;66172;48.526;8.078;2023-12-29T06:49:51;5.22;;;2.10;;
77191;SDS011;66172;48.526;8.078;2023-12-29T06:52:17;4.25;;;1.50;;
77191;SDS011;66172;48.526;8.078;2023-12-29T06:54:43;5.03;;;1.67;;
77191;SDS011;66172;48.526;8.078;2023-12-29T06:57:09;5.22;;;1.90;;
77191;SDS011;66172;48.526;8.078;2023-12-29T06:59:35;7.68;;;1.88;;
77191;SDS011;66172;48.526;8.078;2023-12-29T07:02:00;5.25;;;1.90;;
77191;SDS011;66172;48.526;8.078;2023-12-29T07:04:26;5.03;;;1.63;;
77191;SDS011;66172;48.526;8.078;2023-12-29T07:06:52;6.50;;;2.08;;
77191;SDS011;66172;48.526;8.078;2023-12-29T07:09:18;5.20;;;1.80;;
77191;SDS011;66172;48.526;8.078;2023-12-29T07:11:47;5.53;;;1.80;;
77191;SDS011;66172;48.526;8.078;2023-12-29T07:14:16;6.30;;;1.83;;
77191;SDS011;66172;48.526;8.078;2023-12-29T07:16:43;6.15;;;1.80;;
77191;SDS011;66172;48.526;8.078;2023-12-29T07:19:09;4.85;;;1.73;;
77191;SDS011;66172;48.526;8.078;2023-12-29T07:21:35;5.13;;;1.73;;
77191;SDS011;66172;48.526;8.078;2023-12-29T07:24:01;5.07;;;1.77;;
77191;SDS011;66172;48.526;8.078;2023-12-29T07:26:27;5.22;;;1.92;;
77191;SDS011;66172;48.526;8.078;2023-12-29T07:28:52;4.60;;;1.45;;
77191;SDS011;66172;48.526;8.078;2023-12-29T07:31:22;5.43;;;1.53;;
77191;SDS011;66172;48.526;8.078;2023-12-29T07:33:49;4.63;;;1.60;;
77191;SDS011;66172;48.526;8.078;2023-12-29T07:36:15;4.78;;;1.85;;
77191;SDS011;66172;48.526;8.078;2023-12-29T07:38:41;4.65;;;1.60;;
77191;SDS011;66172;48.526;8.078;2023-12-29T07:41:08;5.13;;;1.55;;
77191;SDS011;66172;48.526;8.078;2023-12-29T07:43:34;5.70;;;1.87;;
77191;SDS011;66172;48.526;8.078;2023-12-29T07:46:01;4.25;;;1.63;;
77191;SDS011;66172;48.526;8.078;2023-12-29T07:48:27;4.60;;;1.92;;
77191;SDS011;66172;48.526;8.078;2023-12-29T07:50:53;4.65;;;1.80;;
77191;SDS011;66172;48.526;8.078;2023-12-29T07:53:24;5.55;;;1.63;;
77191;SDS011;66172;48.526;8.078;2023-12-29T07:55:50;4.23;;;1.60;;
77191;SDS011;66172;48.526;8.078;2023-12-29T07:58:17;4.57;;;1.52;;
77191;SDS011;66172;48.526;8.078;2023-12-29T08:00:43;5.00;;;1.50;;
77191;SDS011;66172;48.526;8.078;2023-12-29T08:03:09;4.77;;;1.50;;
77191;SDS011;66172;48.526;8.078;2023-12-29T08:05:35;3.90;;;1.30;;
77191;SDS011;66172;48.526;8.078;2023-12-29T08:08:01;5.13;;;1.50;;
77191;SDS011;66172;48.526;8.078;2023-12-29T08:10:27;5.00;;;1.58;;
77191;SDS011;66172;48.526;8.078;2023-12-29T08:12:53;4.40;;;1.13;;
77191;SDS011;66172;48.526;8.078;2023-12-29T08:15:20;6.20;;;1.67;;
77191;SDS011;66172;48.526;8.078;2023-12-29T08:17:45;4.43;;;1.10;;
77191;SDS011;66172;48.526;8.078;2023-12-29T08:20:11;4.93;;;1.55;;
77191;SDS011;66172;48.526;8.078;2023-12-29T08:22:37;4.07;;;1.33;;
77191;SDS011;66172;48.526;8.078;2023-12-29T08:25:03;4.00;;;1.10;;
77191;SDS011;66172;48.526;8.078;2023-12-29T08:27:30;4.63;;;1.30;;
77191;SDS011;66172;48.526;8.078;2023-12-29T08:29:55;5.63;;;1.60;;
77191;SDS011;66172;48.526;8.078;2023-12-29T08:32:21;3.90;;;1.20;;
77191;SDS011;66172;48.526;8.078;2023-12-29T08:34:48;6.00;;;1.65;;
77191;SDS011;66172;48.526;8.078;2023-12-29T08:37:13;5.38;;;1.60;;
77191;SDS011;66172;48.526;8.078;2023-12-29T08:39:48;4.07;;;1.20;;
77191;SDS011;66172;48.526;8.078;2023-12-29T08:42:14;5.22;;;1.67;;
77191;SDS011;66172;48.526;8.078;2023-12-29T08:44:41;4.60;;;1.37;;
77191;SDS011;66172;48.526;8.078;2023-12-29T08:47:07;4.07;;;1.30;;
77191;SDS011;66172;48.526;8.078;2023-12-29T08:49:35;4.28;;;1.23;;
77191;SDS011;66172;48.526;8.078;2023-12-29T08:52:02;4.53;;;1.50;;
77191;SDS011;66172;48.526;8.078;2023-12-29T08:54:28;5.28;;;2.30;;
77191;SDS011;66172;48.526;8.078;2023-12-29T08:56:54;4.43;;;1.57;;
77191;SDS011;66172;48.526;8.078;2023-12-29T08:59:20;4.43;;;1.63;;
77191;SDS011;66172;48.526;8.078;2023-12-29T09:01:46;4.07;;;1.58;;
77191;SDS011;66172;48.526;8.078;2023-12-29T09:04:12;4.10;;;1.30;;
77191;SDS011;66172;48.526;8.078;2023-12-29T09:06:38;4.40;;;1.40;;
77191;SDS011;66172;48.526;8.078;2023-12-29T09:09:04;4.70;;;1.60;;
77191;SDS011;66172;48.526;8.078;2023-12-29T09:11:30;4.53;;;1.40;;
77191;SDS011;66172;48.526;8.078;2023-12-29T09:13:56;4.90;;;1.40;;
77191;SDS011;66172;48.526;8.078;2023-12-29T09:16:22;3.78;;;1.10;;
77191;SDS011;66172;48.526;8.078;2023-12-29T09:18:48;5.03;;;1.60;;
77191;SDS011;66172;48.526;8.078;2023-12-29T09:21:14;4.00;;;1.30;;
77191;SDS011;66172;48.526;8.078;2023-12-29T09:23:39;4.32;;;1.20;;
77191;SDS011;66172;48.526;8.078;2023-12-29T09:26:06;4.70;;;1.70;;
77191;SDS011;66172;48.526;8.078;2023-12-29T09:28:32;4.82;;;1.52;;
77191;SDS011;66172;48.526;8.078;2023-12-29T09:30:58;4.85;;;1.40;;
77191;SDS011;66172;48.526;8.078;2023-12-29T09:33:26;4.33;;;1.50;;
77191;SDS011;66172;48.526;8.078;2023-12-29T09:35:52;5.18;;;1.80;;
77191;SDS011;66172;48.526;8.078;2023-12-29T09:38:18;3.92;;;1.08;;
77191;SDS011;66172;48.526;8.078;2023-12-29T09:40:44;3.83;;;1.13;;
77191;SDS011;66172;48.526;8.078;2023-12-29T09:43:11;3.77;;;1.17;;
77191;SDS011;66172;48.526;8.078;2023-12-29T09:45:38;4.00;;;1.30;;
77191;SDS011;66172;48.526;8.078;2023-12-29T09:48:09;4.50;;;1.30;;
77191;SDS011;66172;48.526;8.078;2023-12-29T09:50:38;4.00;;;1.30;;
77191;SDS011;66172;48.526;8.078;2023-12-29T09:53:06;5.35;;;1.48;;
77191;SDS011;66172;48.526;8.078;2023-12-29T09:55:32;4.20;;;1.33;;
77191;SDS011;66172;48.526;8.078;2023-12-29T09:57:59;5.10;;;1.08;;
77191;SDS011;66172;48.526;8.078;2023-12-29T10:00:26;4.30;;;1.20;;
77191;SDS011;66172;48.526;8.078;2023-12-29T10:02:52;4.95;;;1.25;;
77191;SDS011;66172;48.526;8.078;2023-12-29T10:05:19;4.60;;;1.40;;
77191;SDS011;66172;48.526;8.078;2023-12-29T10:07:45;8.20;;;2.50;;
77191;SDS011;66172;48.526;8.078;2023-12-29T10:10:15;4.15;;;1.45;;
77191;SDS011;66172;48.526;8.078;2023-12-29T10:12:43;4.30;;;1.30;;
77191;SDS011;66172;48.526;8.078;2023-12-29T10:15:14;4.18;;;1.10;;
77191;SDS011;66172;48.526;8.078;2023-12-29T10:23:30;3.92;;;1.10;;
77191;SDS011;66172;48.526;8.078;2023-12-29T10:26:03;4.65;;;1.10;;
77191;SDS011;66172;48.526;8.078;2023-12-29T10:28:30;4.90;;;1.15;;
77191;SDS011;66172;48.526;8.078;2023-12-29T10:30:56;3.92;;;1.40;;
77191;SDS011;66172;48.526;8.078;2023-12-29T10:33:21;3.30;;;0.83;;
77191;SDS011;66172;48.526;8.078;2023-12-29T10:35:56;3.58;;;1.10;;
77191;SDS011;66172;48.526;8.078;2023-12-29T10:38:23;3.55;;;0.90;;
77191;SDS011;66172;48.526;8.078;2023-12-29T10:40:49;6.13;;;1.20;;
77191;SDS011;66172;48.526;8.078;2023-12-29T10:43:21;4.03;;;1.20;;
77191;SDS011;66172;48.526;8.078;2023-12-29T10:45:48;4.20;;;1.40;;
77191;SDS011;66172;48.526;8.078;2023-12-29T10:48:20;3.33;;;1.00;;
77191;SDS011;66172;48.526;8.078;2023-12-29T10:50:48;4.57;;;1.00;;
77191;SDS011;66172;48.526;8.078;2023-12-29T10:53:14;6.38;;;1.05;;
77191;SDS011;66172;48.526;8.078;2023-12-29T10:55:42;4.57;;;0.90;;
77191;SDS011;66172;48.526;8.078;2023-12-29T10:58:09;4.72;;;1.23;;
77191;SDS011;66172;48.526;8.078;2023-12-29T11:00:35;5.35;;;1.63;;
77191;SDS011;66172;48.526;8.078;2023-12-29T11:03:00;3.70;;;0.90;;
77191;SDS011;66172;48.526;8.078;2023-12-29T11:05:27;4.05;;;1.20;;
77191;SDS011;66172;48.526;8.078;2023-12-29T11:07:53;5.78;;;1.10;;
77191;SDS011;66172;48.526;8.078;2023-12-29T11:10:20;4.22;;;1.00;;
77191;SDS011;66172;48.526;8.078;2023-12-29T11:12:47;4.00;;;1.25;;
77191;SDS011;66172;48.526;8.078;2023-12-29T11:15:14;4.30;;;1.27;;
77191;SDS011;66172;48.526;8.078;2023-12-29T11:17:42;3.60;;;0.98;;
77191;SDS011;66172;48.526;8.078;2023-12-29T11:20:15;4.72;;;1.00;;
77191;SDS011;66172;48.526;8.078;2023-12-29T11:22:42;3.70;;;1.10;;
77191;SDS011;66172;48.526;8.078;2023-12-29T11:25:11;4.10;;;1.20;;
77191;SDS011;66172;48.526;8.078;2023-12-29T11:27:37;4.80;;;1.33;;
77191;SDS011;66172;48.526;8.078;2023-12-29T11:30:03;3.75;;;1.02;;
77191;SDS011;66172;48.526;8.078;2023-12-29T11:35:21;4.10;;;1.20;;
77191;SDS011;66172;48.526;8.078;2023-12-29T11:37:57;3.72;;;1.20;;
77191;SDS011;66172;48.526;8.078;2023-12-29T11:42:57;3.53;;;1.10;;
77191;SDS011;66172;48.526;8.078;2023-12-29T11:45:30;4.70;;;1.00;;
77191;SDS011;66172;48.526;8.078;2023-12-29T11:48:01;4.20;;;1.10;;
77191;SDS011;66172;48.526;8.078;2023-12-29T11:50:29;3.30;;;1.00;;
77191;SDS011;66172;48.526;8.078;2023-12-29T11:52:56;4.97;;;1.30;;
77191;SDS011;66172;48.526;8.078;2023-12-29T11:55:23;3.67;;;1.05;;
77191;SDS011;66172;48.526;8.078;2023-12-29T11:57:54;4.47;;;0.80;;
77191;SDS011;66172;48.526;8.078;2023-12-29T12:00:20;3.40;;;0.77;;
77191;SDS011;66172;48.526;8.078;2023-12-29T12:02:46;5.03;;;1.90;;
77191;SDS011;66172;48.526;8.078;2023-12-29T12:05:20;5.15;;;2.30;;
77191;SDS011;66172;48.526;8.078;2023-12-29T12:08:26;4.00;;;1.02;;
77191;SDS011;66172;48.526;8.078;2023-12-29T12:10:54;4.28;;;1.00;;
77191;SDS011;66172;48.526;8.078;2023-12-29T12:19:08;3.55;;;0.63;;
77191;SDS011;66172;48.526;8.078;2023-12-29T12:21:35;4.20;;;0.77;;
77191;SDS011;66172;48.526;8.078;2023-12-29T12:24:03;3.33;;;0.82;;
77191;SDS011;66172;48.526;8.078;2023-12-29T12:26:30;4.30;;;1.10;;
77191;SDS011;66172;48.526;8.078;2023-12-29T12:28:57;3.77;;;0.90;;
77191;SDS011;66172;48.526;8.078;2023-12-29T12:31:23;3.38;;;0.82;;
77191;SDS011;66172;48.526;8.078;2023-12-29T12:36:22;3.45;;;0.70;;
77191;SDS011;66172;48.526;8.078;2023-12-29T12:38:54;3.70;;;1.00;;
77191;SDS011;66172;48.526;8.078;2023-12-29T12:41:24;4.37;;;1.00;;
77191;SDS011;66172;48.526;8.078;2023-12-29T12:46:29;3.40;;;0.90;;
77191;SDS011;66172;48.526;8.078;2023-12-29T12:48:59;4.18;;;0.90;;
77191;SDS011;66172;48.526;8.078;2023-12-29T12:51:25;3.85;;;0.85;;
77191;SDS011;66172;48.526;8.078;2023-12-29T12:53:51;3.77;;;1.00;;
77191;SDS011;66172;48.526;8.078;2023-12-29T12:56:18;3.95;;;1.10;;
77191;SDS011;66172;48.526;8.078;2023-12-29T12:58:45;4.68;;;0.93;;
77191;SDS011;66172;48.526;8.078;2023-12-29T13:01:11;3.97;;;0.82;;
77191;SDS011;66172;48.526;8.078;2023-12-29T13:03:38;3.83;;;1.02;;
77191;SDS011;66172;48.526;8.078;2023-12-29T13:06:05;3.80;;;1.07;;
77191;SDS011;66172;48.526;8.078;2023-12-29T13:08:32;5.60;;;1.33;;
77191;SDS011;66172;48.526;8.078;2023-12-29T13:10:59;3.85;;;1.00;;
77191;SDS011;66172;48.526;8.078;2023-12-29T13:13:35;3.65;;;0.95;;
77191;SDS011;66172;48.526;8.078;2023-12-29T13:16:02;5.55;;;1.00;;
77191;SDS011;66172;48.526;8.078;2023-12-29T13:18:28;3.50;;;0.90;;
77191;SDS011;66172;48.526;8.078;2023-12-29T13:20:56;3.72;;;0.88;;
77191;SDS011;66172;48.526;8.078;2023-12-29T13:23:25;4.00;;;0.95;;
77191;SDS011;66172;48.526;8.078;2023-12-29T13:25:55;3.58;;;0.75;;
77191;SDS011;66172;48.526;8.078;2023-12-29T13:28:24;4.10;;;1.10;;
77191;SDS011;66172;48.526;8.078;2023-12-29T13:30:52;4.10;;;1.30;;
77191;SDS011;66172;48.526;8.078;2023-12-29T13:33:31;4.95;;;1.40;;
77191;SDS011;66172;48.526;8.078;2023-12-29T13:36:12;4.70;;;1.60;;
77191;SDS011;66172;48.526;8.078;2023-12-29T13:38:50;4.57;;;1.35;;
77191;SDS011;66172;48.526;8.078;2023-12-29T13:41:21;4.75;;;1.40;;
77191;SDS011;66172;48.526;8.078;2023-12-29T13:43:48;4.20;;;1.33;;
77191;SDS011;66172;48.526;8.078;2023-12-29T13:46:15;3.90;;;1.15;;
77191;SDS011;66172;48.526;8.078;2023-12-29T13:48:42;4.25;;;1.25;;
77191;SDS011;66172;48.526;8.078;2023-12-29T13:51:09;5.22;;;1.42;;
77191;SDS011;66172;48.526;8.078;2023-12-29T13:53:35;4.88;;;1.48;;
77191;SDS011;66172;48.526;8.078;2023-12-29T13:56:07;4.30;;;1.60;;
77191;SDS011;66172;48.526;8.078;2023-12-29T13:58:34;3.80;;;1.10;;
77191;SDS011;66172;48.526;8.078;2023-12-29T14:01:00;5.80;;;1.90;;
77191;SDS011;66172;48.526;8.078;2023-12-29T14:03:27;5.18;;;1.50;;
77191;SDS011;66172;48.526;8.078;2023-12-29T14:06:00;4.83;;;1.70;;
77191;SDS011;66172;48.526;8.078;2023-12-29T14:08:33;4.50;;;1.52;;
77191;SDS011;66172;48.526;8.078;2023-12-29T14:11:10;4.82;;;1.30;;
77191;SDS011;66172;48.526;8.078;2023-12-29T14:13:42;4.07;;;0.75;;
77191;SDS011;66172;48.526;8.078;2023-12-29T14:16:13;5.47;;;1.08;;
77191;SDS011;66172;48.526;8.078;2023-12-29T14:21:27;4.15;;;1.60;;
77191;SDS011;66172;48.526;8.078;2023-12-29T14:24:00;4.05;;;1.38;;
77191;SDS011;66172;48.526;8.078;2023-12-29T14:26:26;4.97;;;1.80;;
77191;SDS011;66172;48.526;8.078;2023-12-29T14:29:02;3.90;;;1.38;;
77191;SDS011;66172;48.526;8.078;2023-12-29T14:31:28;4.33;;;0.70;;
77191;SDS011;66172;48.526;8.078;2023-12-29T14:33:57;4.65;;;1.10;;
77191;SDS011;66172;48.526;8.078;2023-12-29T14:36:23;4.50;;;1.00;;
77191;SDS011;66172;48.526;8.078;2023-12-29T14:38:49;5.68;;;1.50;;
77191;SDS011;66172;48.526;8.078;2023-12-29T14:41:15;6.13;;;1.00;;
77191;SDS011;66172;48.526;8.078;2023-12-29T14:43:41;3.63;;;0.80;;
77191;SDS011;66172;48.526;8.078;2023-12-29T14:46:07;4.20;;;1.02;;
77191;SDS011;66172;48.526;8.078;2023-12-29T14:48:33;4.95;;;1.15;;
77191;SDS011;66172;48.526;8.078;2023-12-29T14:50:58;4.63;;;1.00;;
77191;SDS011;66172;48.526;8.078;2023-12-29T14:53:24;4.05;;;1.00;;
77191;SDS011;66172;48.526;8.078;2023-12-29T14:55:51;5.93;;;1.70;;
77191;SDS011;66172;48.526;8.078;2023-12-29T14:58:17;4.85;;;1.70;;
77191;SDS011;66172;48.526;8.078;2023-12-29T15:00:45;4.30;;;1.30;;
77191;SDS011;66172;48.526;8.078;2023-12-29T15:03:12;4.82;;;1.00;;
77191;SDS011;66172;48.526;8.078;2023-12-29T15:05:43;4.78;;;1.08;;
77191;SDS011;66172;48.526;8.078;2023-12-29T15:08:09;5.55;;;1.55;;
77191;SDS011;66172;48.526;8.078;2023-12-29T15:10:35;4.18;;;1.27;;
77191;SDS011;66172;48.526;8.078;2023-12-29T15:13:01;4.50;;;1.40;;
77191;SDS011;66172;48.526;8.078;2023-12-29T15:15:27;3.70;;;0.93;;